Time;durP1;ratioP1;P1;durP2;ratioP2;P2;SDS_P1;SDS_P2;PMS_P1;PMS_P2;Temp;Humidity;BMP_temperature;BMP_pressure;BME280_temperature;BME280_humidity;BME280_pressure;Samples;Min_cycle;Max_cycle;Signal;HPM_P1;HPM_P2
2023/03/24 00:00:46;;;;;;;5.03;4.00;;;12.60;99.90;;;;;;5074314;28;20928;-49
2023/03/24 00:03:15;;;;;;;4.43;3.67;;;12.70;99.90;;;;;;5074233;28;20437;-48
2023/03/24 00:05:43;;;;;;;6.10;3.80;;;13.20;99.90;;;;;;5074363;28;20483;-49
2023/03/24 00:08:10;;;;;;;5.10;3.57;;;12.70;99.90;;;;;;5056051;28;20438;-48
2023/03/24 00:10:36;;;;;;;8.00;4.00;;;12.80;99.90;;;;;;5074132;28;20532;-48
2023/03/24 00:13:04;;;;;;;5.40;3.87;;;12.60;99.90;;;;;;5074206;28;20434;-48
2023/03/24 00:15:32;;;;;;;3.90;3.20;;;12.80;99.90;;;;;;5074079;28;20531;-48
2023/03/24 00:18:00;;;;;;;3.00;2.70;;;12.50;99.90;;;;;;5073972;28;20418;-47
2023/03/24 00:20:28;;;;;;;3.97;3.50;;;12.70;99.90;;;;;;5073753;28;20971;-47
2023/03/24 00:22:57;;;;;;;5.03;3.73;;;12.60;99.90;;;;;;5074056;28;20442;-48
2023/03/24 00:25:26;;;;;;;5.10;3.43;;;13.20;99.90;;;;;;5073846;28;21039;-47
2023/03/24 00:27:54;;;;;;;5.43;3.27;;;12.60;99.90;;;;;;5074064;28;20464;-48
2023/03/24 00:30:21;;;;;;;4.73;3.00;;;13.20;99.90;;;;;;5074169;28;20433;-49
2023/03/24 00:32:48;;;;;;;5.73;3.50;;;13.00;99.90;;;;;;5074041;28;20452;-48
2023/03/24 00:35:16;;;;;;;5.30;3.27;;;12.50;99.90;;;;;;5056012;28;20511;-49
2023/03/24 00:37:45;;;;;;;5.00;3.40;;;13.00;99.90;;;;;;5056137;28;20457;-48
2023/03/24 00:40:15;;;;;;;4.80;3.63;;;12.50;99.90;;;;;;5073388;28;20440;-48
2023/03/24 00:42:44;;;;;;;4.00;2.93;;;12.60;99.90;;;;;;5055836;28;20510;-48
2023/03/24 00:45:13;;;;;;;6.67;3.63;;;12.90;99.90;;;;;;5055556;28;20480;-48
2023/03/24 00:47:39;;;;;;;4.13;3.47;;;12.90;99.90;;;;;;5055584;28;20441;-48
2023/03/24 00:50:08;;;;;;;4.60;3.47;;;13.00;99.90;;;;;;5055218;28;20430;-48
2023/03/24 00:52:43;;;;;;;4.93;3.10;;;12.60;99.90;;;;;;5055457;28;20445;-48
2023/03/24 00:55:12;;;;;;;4.93;3.30;;;13.00;99.90;;;;;;5072491;28;20456;-49
2023/03/24 00:57:40;;;;;;;5.00;2.77;;;12.60;99.90;;;;;;5073618;28;20424;-48
2023/03/24 01:00:13;;;;;;;3.37;3.07;;;12.90;99.90;;;;;;5073056;28;20521;-47
2023/03/24 01:02:40;;;;;;;3.90;3.50;;;12.70;99.90;;;;;;5073146;28;20440;-48
2023/03/24 01:05:07;;;;;;;3.30;2.90;;;12.70;99.90;;;;;;5073000;28;20459;-48
2023/03/24 01:07:40;;;;;;;5.23;3.53;;;12.70;99.90;;;;;;5073081;28;20473;-48
2023/03/24 01:10:07;;;;;;;3.90;3.30;;;12.50;99.90;;;;;;5055122;28;20467;-48
2023/03/24 01:12:36;;;;;;;3.63;3.10;;;12.70;99.90;;;;;;5073084;28;20463;-48
2023/03/24 01:15:06;;;;;;;4.33;2.93;;;12.60;99.90;;;;;;5055079;28;20470;-48
2023/03/24 01:17:34;;;;;;;3.73;2.77;;;12.60;99.90;;;;;;5073029;28;20403;-51
2023/03/24 01:20:07;;;;;;;3.23;2.90;;;12.80;99.90;;;;;;5072618;28;20445;-48
2023/03/24 01:22:36;;;;;;;3.50;3.20;;;12.90;99.90;;;;;;5072937;28;20456;-48
2023/03/24 01:25:03;;;;;;;6.50;2.90;;;12.80;99.90;;;;;;5072589;28;20486;-48
2023/03/24 01:27:30;;;;;;;4.17;3.57;;;12.60;99.90;;;;;;5072716;28;20428;-49
2023/03/24 01:29:59;;;;;;;3.77;2.80;;;13.10;99.90;;;;;;5054301;28;20976;-47
2023/03/24 01:32:25;;;;;;;4.00;3.30;;;13.00;99.90;;;;;;5072711;28;20456;-48
2023/03/24 01:34:52;;;;;;;4.23;3.33;;;13.10;99.90;;;;;;5072773;28;20473;-48
2023/03/24 01:37:19;;;;;;;3.70;3.10;;;12.90;99.90;;;;;;5072544;28;20595;-47
2023/03/24 01:39:47;;;;;;;4.03;3.07;;;13.10;99.90;;;;;;5054468;28;20419;-48
2023/03/24 01:42:18;;;;;;;3.10;2.80;;;13.00;99.90;;;;;;5072573;28;20410;-48
2023/03/24 01:44:46;;;;;;;5.23;3.47;;;12.10;99.90;;;;;;5072480;28;20466;-48
2023/03/24 01:47:13;;;;;;;3.23;2.93;;;12.50;99.90;;;;;;5072264;28;20919;-49
2023/03/24 01:49:45;;;;;;;3.53;3.20;;;13.10;99.90;;;;;;5072075;28;20464;-48
2023/03/24 01:52:17;;;;;;;4.90;2.97;;;12.80;99.90;;;;;;5054414;28;20448;-48
2023/03/24 01:54:48;;;;;;;4.13;3.37;;;12.60;99.90;;;;;;5054412;28;21018;-48
2023/03/24 01:57:21;;;;;;;3.00;2.80;;;13.10;99.90;;;;;;5054340;28;20453;-48
2023/03/24 01:59:52;;;;;;;4.63;3.20;;;13.00;99.90;;;;;;5053978;28;20451;-49
2023/03/24 02:02:41;;;;;;;4.03;3.53;;;13.00;99.90;;;;;;5072189;28;20827;-48
2023/03/24 02:05:11;;;;;;;5.57;2.87;;;12.70;99.90;;;;;;5053798;28;21066;-48
2023/03/24 02:07:46;;;;;;;3.57;3.23;;;12.30;99.90;;;;;;5054384;28;20492;-49
2023/03/24 02:10:18;;;;;;;3.73;2.67;;;12.70;99.90;;;;;;5053831;28;20519;-49
2023/03/24 02:12:46;;;;;;;4.13;3.47;;;12.70;99.90;;;;;;5054080;28;20448;-49
2023/03/24 02:15:15;;;;;;;3.60;3.30;;;12.50;99.90;;;;;;5054136;28;20531;-47
2023/03/24 02:17:55;;;;;;;4.10;2.97;;;12.50;99.90;;;;;;5054055;28;20449;-50
2023/03/24 02:20:59;;;;;;;3.40;2.80;;;13.00;99.90;;;;;;5071793;28;20431;-48
2023/03/24 02:23:58;;;;;;;3.30;3.00;;;12.60;99.90;;;;;;5071885;28;20428;-48
2023/03/24 02:26:47;;;;;;;3.43;3.00;;;12.10;99.90;;;;;;5071951;28;20455;-49
2023/03/24 02:29:41;;;;;;;4.93;2.97;;;12.60;99.90;;;;;;5071593;28;20957;-49
2023/03/24 02:32:34;;;;;;;3.37;2.73;;;13.20;99.90;;;;;;5053865;28;20504;-49
2023/03/24 02:35:26;;;;;;;4.40;3.10;;;13.00;99.90;;;;;;5071902;28;20461;-48
2023/03/24 02:38:22;;;;;;;5.40;3.23;;;12.60;99.90;;;;;;5053766;28;20449;-48
2023/03/24 02:40:55;;;;;;;3.57;3.20;;;12.60;99.90;;;;;;5051543;28;20489;-48
2023/03/24 02:43:32;;;;;;;3.67;2.80;;;12.70;99.90;;;;;;5053795;28;20468;-49
2023/03/24 02:46:12;;;;;;;3.97;2.97;;;12.90;99.90;;;;;;5053610;28;21103;-48
2023/03/24 02:48:50;;;;;;;4.40;3.50;;;12.90;99.90;;;;;;5053404;28;20452;-47
2023/03/24 02:51:23;;;;;;;4.90;2.90;;;12.70;99.90;;;;;;5053638;28;20455;-48
2023/03/24 02:53:57;;;;;;;3.37;2.63;;;12.80;99.90;;;;;;5053648;28;20464;-49
2023/03/24 02:56:35;;;;;;;5.03;3.07;;;12.80;99.90;;;;;;5053756;28;20456;-49
2023/03/24 02:59:18;;;;;;;4.63;3.17;;;13.10;99.90;;;;;;5053322;28;20968;-48
2023/03/24 03:01:52;;;;;;;5.93;3.00;;;12.90;99.90;;;;;;5053617;28;20465;-48
2023/03/24 03:04:35;;;;;;;4.03;3.03;;;12.70;99.90;;;;;;5053627;28;20465;-48
2023/03/24 03:07:08;;;;;;;3.90;3.03;;;13.00;99.90;;;;;;5053891;28;20476;-49
2023/03/24 03:09:39;;;;;;;5.43;3.63;;;12.80;99.90;;;;;;5071883;28;20402;-49
2023/03/24 03:12:12;;;;;;;3.77;3.30;;;13.00;99.90;;;;;;5054130;28;20924;-49
2023/03/24 03:14:41;;;;;;;3.10;2.70;;;12.90;99.90;;;;;;5072108;28;20461;-48
2023/03/24 03:17:13;;;;;;;4.40;3.00;;;12.30;99.90;;;;;;5072421;28;20433;-49
2023/03/24 03:19:42;;;;;;;5.10;3.40;;;13.00;99.90;;;;;;5075513;28;20430;-47
2023/03/24 03:22:14;;;;;;;7.77;3.70;;;12.70;99.90;;;;;;5075421;28;20441;-47
2023/03/24 03:24:45;;;;;;;3.87;3.33;;;13.00;99.90;;;;;;5075252;28;20453;-48
2023/03/24 03:27:17;;;;;;;4.73;3.37;;;12.60;99.90;;;;;;5075184;28;20967;-48
2023/03/24 03:29:47;;;;;;;3.80;3.20;;;13.10;99.90;;;;;;5074731;28;20976;-47
2023/03/24 03:32:23;;;;;;;3.47;3.00;;;12.80;99.90;;;;;;5075250;28;20431;-48
2023/03/24 03:34:55;;;;;;;3.77;3.40;;;12.90;99.90;;;;;;5074941;28;20935;-48
2023/03/24 03:37:27;;;;;;;4.60;2.97;;;12.90;99.90;;;;;;5075424;28;20428;-47
2023/03/24 03:39:58;;;;;;;7.23;3.30;;;12.70;99.90;;;;;;5074723;28;20429;-48
2023/03/24 03:42:26;;;;;;;4.90;3.47;;;12.30;99.90;;;;;;5057046;28;20449;-48
2023/03/24 03:44:53;;;;;;;3.50;2.80;;;13.10;99.90;;;;;;5056792;28;20472;-48
2023/03/24 03:47:21;;;;;;;5.20;3.03;;;12.70;99.90;;;;;;5057070;28;20496;-48
2023/03/24 03:49:50;;;;;;;4.37;3.33;;;12.70;99.90;;;;;;5056542;28;20446;-48
2023/03/24 03:52:17;;;;;;;3.27;2.83;;;12.50;99.90;;;;;;5056887;28;20447;-48
2023/03/24 03:54:45;;;;;;;3.27;2.97;;;12.50;99.90;;;;;;5056803;28;20476;-48
2023/03/24 03:57:14;;;;;;;3.53;3.23;;;13.00;99.90;;;;;;5057027;28;20447;-48
2023/03/24 04:00:08;;;;;;;3.50;2.93;;;12.70;99.90;;;;;;5056305;28;20468;-48
2023/03/24 04:02:52;;;;;;;3.47;3.17;;;12.60;99.90;;;;;;5074493;28;20443;-47
2023/03/24 04:05:26;;;;;;;4.73;2.97;;;12.70;99.90;;;;;;5056141;28;20582;-49
2023/03/24 04:08:17;;;;;;;4.53;3.40;;;13.20;99.90;;;;;;5056333;28;20494;-48
2023/03/24 04:11:19;;;;;;;4.00;3.20;;;12.80;99.90;;;;;;5074462;28;20446;-48
2023/03/24 04:14:33;;;;;;;4.90;3.50;;;12.70;99.90;;;;;;5074789;28;20975;-48
2023/03/24 04:17:34;;;;;;;4.67;4.00;;;13.30;99.90;;;;;;5074557;28;20539;-48
2023/03/24 04:20:10;;;;;;;4.60;3.60;;;12.80;99.90;;;;;;5055863;28;20443;-48
2023/03/24 04:22:52;;;;;;;3.90;3.50;;;12.60;99.90;;;;;;5056198;28;20449;-48
2023/03/24 04:25:30;;;;;;;5.33;3.30;;;12.60;99.90;;;;;;5055848;28;20868;-48
2023/03/24 04:28:03;;;;;;;3.83;3.43;;;12.70;99.90;;;;;;5074334;28;20922;-47
2023/03/24 04:30:36;;;;;;;5.07;4.63;;;12.60;99.90;;;;;;5055764;28;20935;-48
2023/03/24 04:33:09;;;;;;;5.80;4.80;;;13.20;99.90;;;;;;5055648;28;20430;-47
2023/03/24 04:35:40;;;;;;;5.73;4.57;;;12.70;99.90;;;;;;5055849;28;21055;-48
2023/03/24 04:38:26;;;;;;;4.70;4.20;;;13.10;99.90;;;;;;5055366;28;20453;-49
2023/03/24 04:41:16;;;;;;;9.10;5.00;;;12.60;99.90;;;;;;5055738;28;20447;-49
2023/03/24 04:43:47;;;;;;;5.50;4.73;;;13.00;99.90;;;;;;5055751;28;20476;-49
2023/03/24 04:46:16;;;;;;;7.37;4.60;;;12.60;99.90;;;;;;5055535;28;20446;-49
2023/03/24 04:49:13;;;;;;;6.83;5.67;;;12.80;99.90;;;;;;5058418;28;20471;-48
2023/03/24 04:51:42;;;;;;;6.67;4.80;;;12.80;99.90;;;;;;5055512;28;20482;-48
2023/03/24 04:54:24;;;;;;;6.07;5.07;;;13.20;99.90;;;;;;5055506;28;20908;-48
2023/03/24 04:57:00;;;;;;;5.03;4.53;;;12.90;99.90;;;;;;5055495;28;20837;-48
2023/03/24 04:59:30;;;;;;;6.20;4.70;;;12.60;99.90;;;;;;5055017;28;20866;-48
2023/03/24 05:01:57;;;;;;;6.23;5.37;;;12.80;99.90;;;;;;5055311;28;20545;-48
2023/03/24 05:04:43;;;;;;;9.37;5.80;;;12.20;99.90;;;;;;5073870;28;20467;-50
2023/03/24 05:07:16;;;;;;;9.03;4.90;;;12.60;99.90;;;;;;5055199;28;20485;-50
2023/03/24 05:09:45;;;;;;;8.30;5.30;;;12.80;99.90;;;;;;5054762;28;20884;-50
2023/03/24 05:12:12;;;;;;;6.30;5.10;;;13.30;99.90;;;;;;5055077;28;20438;-49
2023/03/24 05:15:00;;;;;;;6.20;4.83;;;12.80;99.90;;;;;;5055150;28;20608;-49
2023/03/24 05:17:26;;;;;;;6.40;5.50;;;12.80;99.90;;;;;;5054995;28;20473;-50
2023/03/24 05:19:55;;;;;;;10.40;7.10;;;12.40;99.90;;;;;;5054382;28;20444;-50
2023/03/24 05:22:21;;;;;;;8.00;5.50;;;13.40;99.90;;;;;;5072772;28;20441;-50
2023/03/24 05:24:48;;;;;;;7.50;5.10;;;12.90;99.90;;;;;;5054884;28;20466;-51
2023/03/24 05:27:15;;;;;;;6.07;5.47;;;12.50;99.90;;;;;;5072510;28;20477;-50
2023/03/24 05:29:42;;;;;;;5.00;4.50;;;13.00;99.90;;;;;;5054286;28;20456;-50
2023/03/24 05:32:12;;;;;;;5.60;4.90;;;12.80;99.90;;;;;;5054689;28;20429;-50
2023/03/24 05:34:39;;;;;;;5.00;4.50;;;12.90;99.90;;;;;;5054645;28;20505;-50
2023/03/24 05:37:16;;;;;;;7.53;5.83;;;13.10;99.90;;;;;;5054418;28;20445;-49
2023/03/24 05:39:45;;;;;;;7.90;6.10;;;12.80;99.90;;;;;;5053826;28;20444;-50
2023/03/24 05:42:31;;;;;;;5.07;4.57;;;13.60;99.90;;;;;;5072415;28;20883;-49
2023/03/24 05:45:00;;;;;;;9.00;5.40;;;13.00;99.90;;;;;;5054368;28;20476;-50
2023/03/24 05:47:27;;;;;;;9.90;5.63;;;13.00;99.90;;;;;;5054141;28;20473;-49
2023/03/24 05:49:55;;;;;;;5.10;4.60;;;12.60;99.90;;;;;;5054101;28;20423;-50
2023/03/24 05:52:23;;;;;;;6.50;4.50;;;12.60;99.90;;;;;;5054326;28;21063;-51
2023/03/24 05:54:52;;;;;;;5.40;4.90;;;13.00;99.90;;;;;;5054330;28;20555;-49
2023/03/24 05:57:22;;;;;;;7.17;5.03;;;12.90;99.90;;;;;;5054024;28;20510;-49
2023/03/24 06:00:15;;;;;;;5.83;5.33;;;13.10;99.90;;;;;;5053874;28;20519;-49
2023/03/24 06:02:48;;;;;;;5.33;4.80;;;13.20;99.90;;;;;;5054286;28;20435;-50
2023/03/24 06:05:25;;;;;;;9.53;5.90;;;12.90;99.90;;;;;;5053897;28;20481;-50
2023/03/24 06:07:57;;;;;;;6.00;4.60;;;13.20;99.90;;;;;;5054035;28;20449;-51
2023/03/24 06:10:25;;;;;;;7.90;5.70;;;13.10;99.90;;;;;;5053713;28;20454;-51
2023/03/24 06:12:52;;;;;;;7.70;5.47;;;13.20;99.90;;;;;;5053961;28;20450;-50
2023/03/24 06:15:18;;;;;;;6.20;5.13;;;13.30;99.90;;;;;;5053566;28;21027;-49
2023/03/24 06:17:48;;;;;;;7.20;4.63;;;13.50;99.90;;;;;;5054086;28;20441;-51
2023/03/24 06:20:24;;;;;;;5.70;4.83;;;13.50;99.90;;;;;;5053470;28;20453;-50
2023/03/24 06:23:01;;;;;;;5.13;4.60;;;13.70;99.90;;;;;;5053773;28;20445;-50
2023/03/24 06:25:35;;;;;;;6.77;4.80;;;13.00;99.90;;;;;;5053543;28;20456;-50
2023/03/24 06:28:13;;;;;;;6.83;4.87;;;13.30;99.90;;;;;;5052957;28;20445;-50
2023/03/24 06:30:44;;;;;;;7.50;5.10;;;12.90;99.90;;;;;;5053704;28;20958;-50
2023/03/24 06:33:12;;;;;;;6.50;4.67;;;13.40;99.90;;;;;;5052727;28;20451;-50
2023/03/24 06:35:39;;;;;;;5.47;4.77;;;13.50;99.90;;;;;;5053487;28;20896;-50
2023/03/24 06:38:11;;;;;;;5.47;4.53;;;13.60;99.90;;;;;;5053369;28;20477;-50
2023/03/24 06:40:39;;;;;;;6.27;4.63;;;13.40;99.90;;;;;;5052580;28;20452;-50
2023/03/24 06:43:06;;;;;;;5.00;4.50;;;13.60;99.90;;;;;;5052844;28;20453;-50
2023/03/24 06:45:38;;;;;;;6.30;4.57;;;13.60;99.90;;;;;;5052910;28;20498;-50
2023/03/24 06:48:05;;;;;;;6.47;5.37;;;14.00;99.90;;;;;;5053043;28;20765;-50
2023/03/24 06:50:34;;;;;;;6.00;4.97;;;13.40;99.90;;;;;;5052962;28;20530;-50
2023/03/24 06:53:05;;;;;;;5.60;5.00;;;13.70;99.90;;;;;;5055115;28;20992;-50
2023/03/24 06:55:35;;;;;;;7.17;5.37;;;13.40;99.90;;;;;;5057396;28;21030;-50
2023/03/24 06:58:03;;;;;;;7.43;5.40;;;13.90;99.90;;;;;;5057093;28;20449;-50
2023/03/24 07:00:56;;;;;;;8.03;5.30;;;14.20;99.90;;;;;;5056930;28;20468;-51
2023/03/24 07:03:47;;;;;;;5.93;4.83;;;13.80;99.90;;;;;;5066702;28;20964;-50
2023/03/24 07:06:17;;;;;;;6.70;4.80;;;13.90;99.90;;;;;;5074587;28;20573;-49
2023/03/24 07:08:45;;;;;;;6.40;5.73;;;14.10;99.90;;;;;;5056881;28;20427;-50
2023/03/24 07:11:14;;;;;;;6.70;5.27;;;13.80;99.90;;;;;;5056787;28;20459;-50
2023/03/24 07:13:48;;;;;;;6.67;5.63;;;14.20;99.90;;;;;;5056902;28;20556;-51
2023/03/24 07:16:16;;;;;;;6.30;5.10;;;14.00;99.90;;;;;;5056454;28;20872;-51
2023/03/24 07:18:43;;;;;;;5.93;4.90;;;14.20;99.90;;;;;;5056444;28;20456;-50
2023/03/24 07:21:10;;;;;;;8.70;5.67;;;14.60;99.90;;;;;;5056774;28;20458;-50
2023/03/24 07:23:37;;;;;;;6.10;5.23;;;14.10;99.90;;;;;;5056633;28;20504;-50
2023/03/24 07:26:09;;;;;;;6.50;5.00;;;14.30;99.90;;;;;;5056768;28;20510;-50
2023/03/24 07:28:54;;;;;;;4.60;4.20;;;14.70;99.90;;;;;;5056478;28;20831;-50
2023/03/24 07:31:36;;;;;;;4.97;4.57;;;14.20;99.90;;;;;;5056453;28;20455;-51
2023/03/24 07:34:03;;;;;;;7.40;4.40;;;14.20;99.90;;;;;;5056571;28;20849;-49
2023/03/24 07:36:30;;;;;;;5.67;4.93;;;14.80;99.90;;;;;;5056582;28;20781;-51
2023/03/24 07:38:58;;;;;;;6.07;4.30;;;14.80;99.90;;;;;;5055998;28;20484;-50
2023/03/24 07:41:31;;;;;;;6.23;4.50;;;15.00;99.90;;;;;;5056718;28;20433;-50
2023/03/24 07:44:03;;;;;;;6.40;3.97;;;14.70;99.90;;;;;;5056161;28;20477;-50
2023/03/24 07:46:37;;;;;;;5.87;4.47;;;14.50;99.90;;;;;;5056207;28;20956;-51
2023/03/24 07:49:03;;;;;;;6.33;5.27;;;15.20;99.90;;;;;;5055548;28;20442;-51
2023/03/24 07:51:30;;;;;;;7.40;5.17;;;15.10;99.90;;;;;;5056128;28;20461;-50
2023/03/24 07:54:10;;;;;;;4.93;4.00;;;15.60;99.90;;;;;;5074277;28;20471;-50
2023/03/24 07:56:41;;;;;;;6.87;4.07;;;15.50;99.90;;;;;;5056500;28;20547;-51
2023/03/24 07:59:11;;;;;;;7.00;4.37;;;15.00;99.90;;;;;;5056096;28;20453;-51
2023/03/24 08:02:01;;;;;;;7.90;4.63;;;15.20;99.90;;;;;;5073574;28;20663;-50
2023/03/24 08:04:41;;;;;;;6.00;4.30;;;15.60;99.90;;;;;;5055415;28;20841;-50
2023/03/24 08:07:19;;;;;;;9.63;5.33;;;15.10;99.90;;;;;;5055869;28;20492;-50
2023/03/24 08:09:46;;;;;;;6.23;4.60;;;14.70;99.90;;;;;;5073518;28;20436;-50
2023/03/24 08:12:12;;;;;;;7.33;4.80;;;15.20;99.90;;;;;;5073983;28;20934;-50
2023/03/24 08:14:40;;;;;;;13.47;4.97;;;15.00;99.90;;;;;;5074102;28;20431;-50
2023/03/24 08:17:06;;;;;;;7.40;4.63;;;14.50;99.90;;;;;;5073937;28;20466;-52
2023/03/24 08:19:33;;;;;;;5.07;4.40;;;15.20;99.90;;;;;;5072820;28;20413;-50
2023/03/24 08:22:00;;;;;;;5.33;4.57;;;15.30;99.90;;;;;;5074044;28;20411;-50
2023/03/24 08:24:27;;;;;;;4.97;4.47;;;14.90;99.90;;;;;;5073908;28;20523;-50
2023/03/24 08:26:57;;;;;;;4.73;4.00;;;14.70;99.90;;;;;;5073781;28;20477;-50
2023/03/24 08:29:24;;;;;;;7.77;5.20;;;15.20;99.90;;;;;;5073073;28;20430;-50
2023/03/24 08:31:52;;;;;;;5.73;4.70;;;15.20;99.90;;;;;;5073543;28;20877;-51
2023/03/24 08:34:18;;;;;;;7.80;4.80;;;15.30;99.90;;;;;;5073553;28;20436;-50
2023/03/24 08:36:45;;;;;;;6.53;4.97;;;14.80;99.90;;;;;;5073308;28;20942;-51
2023/03/24 08:39:11;;;;;;;7.90;5.60;;;14.80;99.90;;;;;;5073042;28;20439;-50
2023/03/24 08:41:38;;;;;;;5.40;4.90;;;14.20;99.90;;;;;;5073344;28;20434;-51
2023/03/24 08:44:06;;;;;;;4.97;4.57;;;14.60;99.90;;;;;;5055314;28;20468;-50
2023/03/24 08:46:33;;;;;;;7.10;4.70;;;14.70;99.90;;;;;;5073137;28;20833;-50
2023/03/24 08:49:01;;;;;;;7.87;4.50;;;14.60;99.90;;;;;;5072800;28;20534;-50
2023/03/24 08:51:28;;;;;;;8.47;5.37;;;14.20;99.90;;;;;;5073443;28;20476;-50
2023/03/24 08:53:54;;;;;;;7.07;5.10;;;14.50;99.90;;;;;;5073015;28;20453;-50
2023/03/24 08:56:22;;;;;;;5.80;5.20;;;14.60;99.90;;;;;;5073094;28;20410;-50
2023/03/24 08:58:50;;;;;;;6.43;4.87;;;14.50;99.90;;;;;;5072577;28;20408;-51
2023/03/24 09:01:17;;;;;;;4.53;4.07;;;14.50;99.90;;;;;;5073041;28;20445;-50
2023/03/24 09:03:43;;;;;;;7.87;4.90;;;14.80;99.90;;;;;;5072871;28;20476;-50
2023/03/24 09:06:11;;;;;;;7.60;5.27;;;14.40;99.90;;;;;;5073062;28;20448;-50
2023/03/24 09:08:38;;;;;;;9.37;7.03;;;14.90;99.90;;;;;;5072156;28;20478;-49
2023/03/24 09:11:05;;;;;;;7.93;5.80;;;15.10;99.90;;;;;;5072977;28;20484;-51
2023/03/24 09:13:32;;;;;;;6.93;4.50;;;15.20;99.90;;;;;;5072769;28;20484;-50
2023/03/24 09:16:00;;;;;;;4.97;4.57;;;15.10;99.90;;;;;;5072018;28;20763;-50
2023/03/24 09:18:28;;;;;;;5.27;4.77;;;14.70;99.90;;;;;;5072523;28;20455;-51
2023/03/24 09:20:54;;;;;;;7.30;5.00;;;15.00;99.90;;;;;;5072607;28;20431;-50
2023/03/24 09:23:23;;;;;;;6.13;4.93;;;15.10;99.90;;;;;;5072653;28;20557;-50
2023/03/24 09:25:50;;;;;;;4.93;4.40;;;14.90;99.90;;;;;;5072648;28;20436;-50
2023/03/24 09:28:16;;;;;;;7.20;4.87;;;14.90;99.90;;;;;;5072296;28;20968;-49
2023/03/24 09:30:43;;;;;;;6.20;5.37;;;15.30;99.90;;;;;;5072507;28;20460;-51
2023/03/24 09:33:10;;;;;;;6.27;4.60;;;15.40;99.90;;;;;;5072564;28;20815;-49
2023/03/24 09:35:36;;;;;;;7.07;5.43;;;15.50;99.90;;;;;;5072565;28;20430;-50
2023/03/24 09:38:03;;;;;;;8.07;6.20;;;15.40;99.90;;;;;;5072301;28;20434;-48
2023/03/24 09:40:33;;;;;;;5.93;4.93;;;15.60;99.90;;;;;;5072392;28;20431;-51
2023/03/24 09:43:03;;;;;;;6.57;5.37;;;15.80;99.90;;;;;;5063785;28;20806;-52
2023/03/24 09:45:36;;;;;;;6.93;4.93;;;15.60;99.90;;;;;;5072315;28;20423;-51
2023/03/24 09:48:07;;;;;;;8.33;4.90;;;15.80;99.90;;;;;;5069200;28;20477;-51
2023/03/24 09:50:38;;;;;;;7.60;5.10;;;15.50;99.90;;;;;;5062879;28;20460;-50
2023/03/24 09:53:09;;;;;;;6.30;4.83;;;15.90;99.90;;;;;;5071925;28;20949;-50
2023/03/24 09:55:40;;;;;;;5.63;4.10;;;15.40;99.90;;;;;;5070012;28;20491;-50
2023/03/24 09:58:11;;;;;;;8.30;5.00;;;16.50;99.90;;;;;;5071251;28;20439;-50
2023/03/24 10:00:37;;;;;;;5.20;4.37;;;16.30;99.90;;;;;;5071407;28;20443;-50
2023/03/24 10:03:19;;;;;;;6.00;5.13;;;16.20;99.90;;;;;;5071077;28;20538;-50
2023/03/24 10:05:50;;;;;;;5.90;5.30;;;16.40;99.90;;;;;;5070082;28;20475;-49
2023/03/24 10:08:25;;;;;;;5.70;4.53;;;16.30;99.90;;;;;;5069320;28;20846;-50
2023/03/24 10:11:01;;;;;;;5.20;4.10;;;16.40;99.90;;;;;;5069630;28;20442;-50
2023/03/24 10:13:41;;;;;;;6.67;4.50;;;16.80;99.90;;;;;;5069601;28;20461;-50
2023/03/24 10:16:13;;;;;;;5.83;4.87;;;16.80;99.90;;;;;;5070098;28;20444;-51
2023/03/24 10:18:46;;;;;;;4.60;3.93;;;16.90;99.90;;;;;;5069955;28;20424;-50
2023/03/24 10:21:19;;;;;;;4.03;3.17;;;16.60;99.90;;;;;;5071354;28;20436;-50
2023/03/24 10:23:53;;;;;;;6.30;3.97;;;16.50;99.90;;;;;;5071080;28;20456;-50
2023/03/24 10:26:35;;;;;;;3.50;3.20;;;16.90;99.90;;;;;;5071590;28;20444;-50
2023/03/24 10:29:13;;;;;;;4.13;3.60;;;17.20;99.90;;;;;;5071084;28;20484;-51
2023/03/24 10:31:41;;;;;;;4.70;3.60;;;17.00;99.90;;;;;;5071569;28;20435;-50
2023/03/24 10:34:11;;;;;;;5.00;3.30;;;17.50;99.90;;;;;;5070981;28;20540;-51
2023/03/24 10:36:38;;;;;;;8.03;3.77;;;17.40;99.90;;;;;;5071608;28;20439;-50
2023/03/24 10:39:05;;;;;;;9.60;3.67;;;17.60;99.90;;;;;;5071105;28;20523;-50
2023/03/24 10:41:36;;;;;;;4.60;3.40;;;17.80;99.90;;;;;;5071414;28;20758;-51
2023/03/24 10:44:03;;;;;;;3.20;2.90;;;17.60;99.90;;;;;;5071597;28;20471;-50
2023/03/24 10:46:31;;;;;;;3.20;2.90;;;17.50;99.90;;;;;;5071339;28;20445;-50
2023/03/24 10:49:08;;;;;;;6.53;3.43;;;18.10;99.90;;;;;;5070752;28;20480;-51
2023/03/24 10:51:35;;;;;;;5.17;3.30;;;18.30;99.90;;;;;;5071226;28;20499;-51
2023/03/24 10:54:11;;;;;;;7.03;3.90;;;18.30;99.90;;;;;;5069913;28;20488;-50
2023/03/24 10:56:40;;;;;;;4.80;3.20;;;17.80;99.90;;;;;;5071450;28;20796;-51
2023/03/24 10:59:22;;;;;;;6.53;3.30;;;17.90;99.90;;;;;;5071052;28;20438;-51
2023/03/24 11:01:48;;;;;;;7.17;3.20;;;18.00;99.90;;;;;;5071666;28;20438;-51
2023/03/24 11:04:18;;;;;;;4.40;3.10;;;18.30;99.90;;;;;;5071528;28;20485;-51
2023/03/24 11:06:57;;;;;;;4.20;3.80;;;18.30;99.90;;;;;;5069896;28;20478;-51
2023/03/24 11:09:25;;;;;;;5.67;3.30;;;18.10;99.90;;;;;;5070777;28;20425;-51
2023/03/24 11:11:53;;;;;;;8.30;3.90;;;17.80;99.90;;;;;;5070955;28;20988;-49
2023/03/24 11:14:24;;;;;;;8.67;3.77;;;18.10;99.90;;;;;;5071471;28;20523;-51
2023/03/24 11:16:52;;;;;;;5.90;3.53;;;18.30;99.90;;;;;;5071151;28;20443;-51
2023/03/24 11:19:21;;;;;;;5.03;3.13;;;18.10;99.90;;;;;;5070360;28;20662;-49
2023/03/24 11:21:49;;;;;;;4.40;3.43;;;18.90;99.90;;;;;;5070481;28;20443;-50
2023/03/24 11:24:18;;;;;;;7.70;3.43;;;18.40;99.90;;;;;;5070806;28;20980;-51
2023/03/24 11:26:47;;;;;;;5.97;3.13;;;18.20;99.90;;;;;;5070708;28;20446;-51
2023/03/24 11:29:18;;;;;;;5.77;3.73;;;18.60;99.90;;;;;;5069287;28;20487;-51
2023/03/24 11:31:51;;;;;;;4.50;3.20;;;18.50;99.90;;;;;;5071025;28;20472;-51
2023/03/24 11:34:23;;;;;;;5.60;3.80;;;18.70;99.90;;;;;;5070790;28;20511;-51
2023/03/24 11:36:52;;;;;;;4.20;2.73;;;18.30;99.90;;;;;;5071108;28;20443;-52
2023/03/24 11:39:22;;;;;;;4.47;3.43;;;18.40;99.90;;;;;;5072520;28;20466;-50
2023/03/24 11:42:14;;;;;;;4.63;3.70;;;18.50;99.90;;;;;;5073731;28;20407;-50
2023/03/24 11:44:48;;;;;;;5.30;3.30;;;18.50;99.90;;;;;;5073191;28;20432;-51
2023/03/24 11:47:22;;;;;;;4.53;3.03;;;18.30;99.90;;;;;;5073905;28;20438;-50
2023/03/24 11:49:55;;;;;;;7.33;3.27;;;18.70;99.90;;;;;;5073551;28;20515;-51
2023/03/24 11:52:27;;;;;;;5.37;3.73;;;18.80;99.90;;;;;;5073832;28;20450;-51
2023/03/24 11:54:54;;;;;;;5.53;3.17;;;18.90;99.90;;;;;;5073781;28;20978;-52
2023/03/24 11:57:36;;;;;;;3.33;2.70;;;18.90;99.90;;;;;;5074179;28;20430;-51
2023/03/24 12:00:12;;;;;;;5.47;3.13;;;18.70;99.90;;;;;;5073734;28;20520;-51
2023/03/24 12:02:52;;;;;;;5.47;3.70;;;18.80;99.90;;;;;;5074026;28;20488;-51
2023/03/24 12:05:30;;;;;;;4.47;3.05;;;18.80;99.90;;;;;;5073645;28;20440;-50
2023/03/24 12:08:08;;;;;;;6.00;3.90;;;19.10;99.90;;;;;;5074067;28;20562;-50
2023/03/24 12:10:48;;;;;;;5.83;3.80;;;18.60;99.90;;;;;;5073995;28;20433;-51
2023/03/24 12:13:17;;;;;;;4.90;3.73;;;18.40;99.90;;;;;;5073976;28;20448;-51
2023/03/24 12:15:59;;;;;;;4.33;3.50;;;18.90;99.90;;;;;;5073937;28;20823;-51
2023/03/24 12:18:54;;;;;;;7.97;3.63;;;19.10;99.90;;;;;;5055099;28;20442;-50
2023/03/24 12:21:30;;;;;;;6.47;3.57;;;18.90;99.90;;;;;;5044599;28;20940;-51
2023/03/24 12:24:00;;;;;;;3.67;2.90;;;18.80;99.90;;;;;;5073887;28;20468;-51
2023/03/24 12:26:29;;;;;;;4.40;3.10;;;18.60;99.80;;;;;;5073531;28;20796;-50
2023/03/24 12:29:01;;;;;;;5.20;2.73;;;19.80;99.90;;;;;;5073004;28;20503;-49
2023/03/24 12:32:19;;;;;;;3.60;2.93;;;19.20;99.60;;;;;;5073561;28;20954;-50
2023/03/24 12:35:12;;;;;;;5.03;3.00;;;18.80;98.50;;;;;;5073507;28;20451;-52
2023/03/24 12:37:49;;;;;;;4.80;2.90;;;18.90;98.90;;;;;;5073191;28;20434;-52
2023/03/24 12:40:58;;;;;;;10.40;3.60;;;18.80;99.00;;;;;;5072689;28;20817;-51
2023/03/24 12:43:36;;;;;;;4.33;3.20;;;18.80;98.60;;;;;;5073018;28;20471;-51
2023/03/24 12:46:14;;;;;;;2.70;2.10;;;18.80;98.30;;;;;;5073552;28;20938;-51
2023/03/24 12:48:57;;;;;;;4.60;2.10;;;18.80;98.00;;;;;;5072883;28;21161;-51
2023/03/24 12:51:35;;;;;;;3.27;2.43;;;18.70;97.40;;;;;;5071899;28;20430;-50
2023/03/24 12:54:15;;;;;;;3.00;2.37;;;18.60;96.90;;;;;;5072925;28;20987;-51
2023/03/24 12:56:47;;;;;;;3.20;2.17;;;18.60;96.90;;;;;;5072430;28;20434;-52
2023/03/24 12:59:18;;;;;;;4.50;2.70;;;18.40;96.80;;;;;;5072677;28;20430;-52
2023/03/24 13:01:48;;;;;;;6.00;3.13;;;18.80;96.90;;;;;;5073307;28;20430;-51
2023/03/24 13:04:20;;;;;;;3.40;3.00;;;18.60;96.80;;;;;;5072670;28;20469;-51
2023/03/24 13:06:53;;;;;;;3.33;2.43;;;18.40;96.80;;;;;;5073125;28;20804;-52
2023/03/24 13:09:31;;;;;;;5.37;2.70;;;18.70;97.10;;;;;;5072629;28;20854;-51
2023/03/24 13:12:02;;;;;;;10.30;3.27;;;18.60;97.10;;;;;;5072547;28;20438;-50
2023/03/24 13:14:34;;;;;;;4.57;2.58;;;18.10;96.80;;;;;;5071948;28;20430;-51